Time;durP1;ratioP1;P1;durP2;ratioP2;P2;SDS_P1;SDS_P2;PMS_P1;PMS_P2;Temp;Humidity;BMP_temperature;BMP_pressure;BME280_temperature;BME280_humidity;BME280_pressure;Samples;Min_cycle;Max_cycle;Signal;HPM_P1;HPM_P2
2023/01/04 00:01:44;;;;;;;134.97;18.80;;;;;;;;;;780177;179;842874;-62
2023/01/04 00:04:10;;;;;;;157.23;19.80;;;;;;;;;;773915;179;920254;-68
2023/01/04 00:06:35;;;;;;;226.50;25.87;;;;;;;;;;758564;181;889381;-62
2023/01/04 00:09:01;;;;;;;166.17;22.80;;;;;;;;;;760551;184;858459;-62
2023/01/04 00:11:27;;;;;;;253.23;24.30;;;;;;;;;;755332;182;919753;-67
2023/01/04 00:13:53;;;;;;;112.90;17.73;;;;;;;;;;755504;186;919198;-62
2023/01/04 00:16:19;;;;;;;263.03;24.70;;;;;;;;;;766450;182;919054;-62
2023/01/04 00:18:45;;;;;;;178.00;19.53;;;;;;;;;;763401;184;919650;-63
2023/01/04 00:21:11;;;;;;;335.93;29.17;;;;;;;;;;764644;182;918822;-67
2023/01/04 00:23:37;;;;;;;366.07;29.03;;;;;;;;;;765626;180;919183;-67
2023/01/04 00:26:03;;;;;;;271.80;26.80;;;;;;;;;;776933;181;916265;-62
2023/01/04 00:28:29;;;;;;;79.60;15.83;;;;;;;;;;772359;180;919343;-62
2023/01/04 00:30:55;;;;;;;59.10;11.90;;;;;;;;;;772652;181;927231;-63
2023/01/04 00:33:20;;;;;;;179.52;23.25;;;;;;;;;;777829;181;920357;-67
2023/01/04 00:35:46;;;;;;;218.77;21.53;;;;;;;;;;770973;182;920868;-67
2023/01/04 00:38:12;;;;;;;75.23;13.40;;;;;;;;;;769711;183;919459;-68
2023/01/04 00:40:38;;;;;;;46.10;13.30;;;;;;;;;;775988;182;919200;-63
2023/01/04 00:43:04;;;;;;;145.57;17.90;;;;;;;;;;772709;182;921306;-68
2023/01/04 00:45:30;;;;;;;241.47;22.60;;;;;;;;;;766670;182;917491;-63
2023/01/04 00:47:56;;;;;;;221.00;19.47;;;;;;;;;;755706;182;918544;-67
2023/01/04 00:50:21;;;;;;;49.20;12.90;;;;;;;;;;757559;183;911266;-68
2023/01/04 00:52:47;;;;;;;319.15;25.30;;;;;;;;;;767940;183;918878;-63
2023/01/04 00:55:13;;;;;;;321.17;25.03;;;;;;;;;;766619;183;918886;-63
2023/01/04 00:57:39;;;;;;;118.27;16.10;;;;;;;;;;768585;184;915252;-68
2023/01/04 01:00:05;;;;;;;112.18;15.63;;;;;;;;;;765181;182;814766;-67
2023/01/04 01:02:32;;;;;;;162.23;17.93;;;;;;;;;;770269;183;918649;-63
2023/01/04 01:04:58;;;;;;;179.27;20.20;;;;;;;;;;774962;182;917609;-68
2023/01/04 01:07:24;;;;;;;140.83;16.97;;;;;;;;;;772142;181;918457;-63
2023/01/04 01:09:50;;;;;;;144.68;20.05;;;;;;;;;;775017;179;920999;-63
2023/01/04 01:12:16;;;;;;;334.43;28.03;;;;;;;;;;755551;184;915969;-68
2023/01/04 01:14:41;;;;;;;267.77;25.50;;;;;;;;;;754917;184;918427;-68
2023/01/04 01:17:07;;;;;;;317.67;24.90;;;;;;;;;;754109;184;1015159;-63
2023/01/04 01:19:33;;;;;;;164.07;20.63;;;;;;;;;;755737;184;918691;-63
2023/01/04 01:21:59;;;;;;;139.73;18.70;;;;;;;;;;777939;179;918006;-63
2023/01/04 01:24:25;;;;;;;56.20;15.03;;;;;;;;;;771615;179;919408;-63
2023/01/04 01:26:51;;;;;;;70.93;17.17;;;;;;;;;;770590;181;920351;-63
2023/01/04 01:29:16;;;;;;;163.68;20.35;;;;;;;;;;774407;180;918225;-63
2023/01/04 01:31:42;;;;;;;148.13;19.53;;;;;;;;;;770306;181;918572;-63
2023/01/04 01:34:08;;;;;;;52.93;15.27;;;;;;;;;;772381;182;916184;-63
2023/01/04 01:36:34;;;;;;;40.00;14.50;;;;;;;;;;771982;181;916067;-63
2023/01/04 01:39:00;;;;;;;42.40;13.87;;;;;;;;;;775961;181;816778;-63
2023/01/04 01:41:26;;;;;;;127.93;21.90;;;;;;;;;;775625;180;816293;-63
2023/01/04 01:43:53;;;;;;;39.20;14.33;;;;;;;;;;777304;181;631003;-68
2023/01/04 01:46:19;;;;;;;128.47;21.77;;;;;;;;;;765692;182;918799;-63
2023/01/04 01:48:44;;;;;;;55.93;15.97;;;;;;;;;;754311;185;919225;-67
2023/01/04 01:51:10;;;;;;;232.63;27.40;;;;;;;;;;757959;182;920087;-67
2023/01/04 01:53:36;;;;;;;177.30;20.90;;;;;;;;;;770016;182;819011;-63
2023/01/04 01:56:02;;;;;;;172.63;22.60;;;;;;;;;;766826;182;913487;-63
2023/01/04 01:58:28;;;;;;;154.70;20.77;;;;;;;;;;769234;181;919108;-67
2023/01/04 02:00:54;;;;;;;153.98;19.75;;;;;;;;;;773537;182;921614;-64
2023/01/04 02:03:20;;;;;;;173.03;21.47;;;;;;;;;;775361;182;900034;-63
2023/01/04 02:05:46;;;;;;;178.13;21.83;;;;;;;;;;770302;182;916511;-64
2023/01/04 02:08:12;;;;;;;125.53;19.67;;;;;;;;;;769505;181;968581;-63
2023/01/04 02:10:38;;;;;;;41.53;14.50;;;;;;;;;;775612;181;887598;-68
2023/01/04 02:13:05;;;;;;;140.00;20.50;;;;;;;;;;771143;179;903865;-63
2023/01/04 02:15:30;;;;;;;168.47;20.80;;;;;;;;;;770232;180;919407;-68
2023/01/04 02:17:59;;;;;;;151.37;21.50;;;;;;;;;;777132;180;919580;-68
2023/01/04 02:20:26;;;;;;;86.00;17.60;;;;;;;;;;771666;179;919413;-67
2023/01/04 02:23:13;;;;;;;162.27;21.40;;;;;;;;;;774149;181;920794;-67
2023/01/04 02:25:50;;;;;;;131.57;18.13;;;;;;;;;;779039;178;919069;-67
2023/01/04 02:28:22;;;;;;;111.20;19.02;;;;;;;;;;769972;180;919529;-63
2023/01/04 02:30:59;;;;;;;49.70;14.20;;;;;;;;;;770389;180;920707;-64
2023/01/04 02:33:27;;;;;;;27.27;10.57;;;;;;;;;;774536;180;919098;-63
2023/01/04 02:35:59;;;;;;;47.67;13.50;;;;;;;;;;778177;179;917162;-64
2023/01/04 02:38:25;;;;;;;30.40;10.97;;;;;;;;;;776105;179;816399;-64
2023/01/04 02:40:51;;;;;;;63.03;15.70;;;;;;;;;;771873;179;1021238;-64
2023/01/04 02:45:50;;;;;;;109.20;16.63;;;;;;;;;;774917;181;816806;-68
2023/01/04 02:50:48;;;;;;;75.97;14.73;;;;;;;;;;774227;181;918278;-68
2023/01/04 02:53:14;;;;;;;75.10;15.67;;;;;;;;;;767052;182;1021594;-68
2023/01/04 02:55:50;;;;;;;93.78;14.45;;;;;;;;;;774055;182;917437;-69
2023/01/04 02:58:17;;;;;;;165.83;20.80;;;;;;;;;;763700;184;913165;-65
2023/01/04 03:08:46;;;;;;;130.47;17.57;;;;;;;;;;753993;186;919162;-64
2023/01/04 03:13:44;;;;;;;115.93;18.93;;;;;;;;;;760702;184;816741;-64
2023/01/04 03:16:10;;;;;;;43.70;13.03;;;;;;;;;;757303;181;919255;-67
2023/01/04 03:18:37;;;;;;;68.23;13.60;;;;;;;;;;772980;182;918004;-64
2023/01/04 03:21:03;;;;;;;183.00;18.70;;;;;;;;;;774743;182;916674;-69
2023/01/04 03:36:27;;;;;;;176.97;19.73;;;;;;;;;;772484;179;920355;-68
2023/01/04 03:49:07;;;;;;;33.13;9.60;;;;;;;;;;770698;180;919651;-64
2023/01/04 03:51:32;;;;;;;65.80;11.10;;;;;;;;;;777270;182;816038;-68
2023/01/04 03:53:59;;;;;;;27.53;9.93;;;;;;;;;;772257;181;919069;-63
2023/01/04 03:56:25;;;;;;;84.25;12.57;;;;;;;;;;771979;181;1019820;-68
2023/01/04 03:58:51;;;;;;;45.80;11.40;;;;;;;;;;779183;180;917715;-69
2023/01/04 04:01:17;;;;;;;30.40;9.77;;;;;;;;;;774363;181;901267;-68
2023/01/04 04:08:46;;;;;;;73.83;14.00;;;;;;;;;;776260;182;919251;-65
2023/01/04 04:13:43;;;;;;;37.93;9.93;;;;;;;;;;770117;182;919627;-64
2023/01/04 04:16:09;;;;;;;84.13;14.60;;;;;;;;;;769525;180;1022034;-65
2023/01/04 04:18:35;;;;;;;59.87;13.87;;;;;;;;;;775872;183;819875;-65
2023/01/04 04:21:01;;;;;;;46.80;9.97;;;;;;;;;;768215;181;920292;-69
2023/01/04 04:23:27;;;;;;;60.30;12.90;;;;;;;;;;768555;182;920670;-68
2023/01/04 04:25:53;;;;;;;48.57;11.67;;;;;;;;;;774441;183;918488;-68
2023/01/04 04:28:18;;;;;;;58.27;13.17;;;;;;;;;;770889;181;918956;-69
2023/01/04 04:30:44;;;;;;;50.17;11.63;;;;;;;;;;769752;183;917351;-68
2023/01/04 04:33:10;;;;;;;148.53;19.80;;;;;;;;;;776691;180;815829;-65
2023/01/04 04:35:36;;;;;;;114.25;14.55;;;;;;;;;;770768;181;816764;-65
2023/01/04 04:38:02;;;;;;;87.07;12.00;;;;;;;;;;767372;181;919570;-65
2023/01/04 04:42:59;;;;;;;160.80;17.17;;;;;;;;;;761945;184;918455;-69
2023/01/04 04:45:25;;;;;;;82.97;14.60;;;;;;;;;;768763;181;916305;-69
2023/01/04 04:47:51;;;;;;;103.90;13.33;;;;;;;;;;771935;179;915505;-69
2023/01/04 04:50:17;;;;;;;135.47;16.27;;;;;;;;;;778070;181;916564;-65
2023/01/04 04:52:43;;;;;;;62.90;12.60;;;;;;;;;;770817;181;919159;-69
2023/01/04 04:55:09;;;;;;;60.77;11.90;;;;;;;;;;767472;182;917854;-68
2023/01/04 04:57:35;;;;;;;27.45;9.63;;;;;;;;;;772886;182;918698;-65
2023/01/04 05:00:01;;;;;;;64.60;11.13;;;;;;;;;;775779;182;919331;-65
2023/01/04 05:02:27;;;;;;;111.05;15.18;;;;;;;;;;772592;180;916099;-65
2023/01/04 05:04:53;;;;;;;64.93;12.30;;;;;;;;;;774609;181;919555;-65
2023/01/04 05:07:19;;;;;;;50.73;9.90;;;;;;;;;;777436;181;917099;-64
2023/01/04 05:09:44;;;;;;;78.63;12.63;;;;;;;;;;767764;182;919416;-65
2023/01/04 05:14:42;;;;;;;44.60;11.43;;;;;;;;;;768341;184;919270;-62
2023/01/04 05:17:08;;;;;;;54.33;11.17;;;;;;;;;;768237;181;919583;-69
2023/01/04 05:19:34;;;;;;;35.00;10.40;;;;;;;;;;772325;181;919524;-65
2023/01/04 05:21:59;;;;;;;41.60;10.40;;;;;;;;;;770123;181;919618;-69
2023/01/04 05:24:25;;;;;;;93.00;15.00;;;;;;;;;;768657;182;918737;-65
2023/01/04 05:26:51;;;;;;;56.20;12.33;;;;;;;;;;760613;182;919272;-70
2023/01/04 05:31:49;;;;;;;64.60;12.20;;;;;;;;;;761523;182;918330;-65
2023/01/04 05:34:15;;;;;;;73.57;14.47;;;;;;;;;;758175;183;919338;-69
2023/01/04 05:36:40;;;;;;;24.97;10.70;;;;;;;;;;764752;182;855455;-69
2023/01/04 05:39:06;;;;;;;30.80;10.47;;;;;;;;;;769792;179;1021282;-69
2023/01/04 05:44:04;;;;;;;46.77;12.83;;;;;;;;;;766393;181;920613;-69
2023/01/04 05:46:30;;;;;;;37.95;11.32;;;;;;;;;;767075;182;1021056;-65
2023/01/04 05:48:55;;;;;;;31.80;11.55;;;;;;;;;;772169;182;920820;-69
2023/01/04 05:51:21;;;;;;;41.97;10.93;;;;;;;;;;765356;180;916056;-69
2023/01/04 05:53:47;;;;;;;34.60;11.53;;;;;;;;;;766695;180;915182;-69
2023/01/04 05:56:13;;;;;;;31.50;10.20;;;;;;;;;;773885;180;918978;-65
2023/01/04 05:58:39;;;;;;;40.13;10.53;;;;;;;;;;777604;179;905111;-64
2023/01/04 06:01:06;;;;;;;32.03;9.70;;;;;;;;;;766749;181;927055;-68
2023/01/04 06:03:31;;;;;;;47.77;13.77;;;;;;;;;;771710;180;929215;-65
2023/01/04 06:05:56;;;;;;;27.30;10.73;;;;;;;;;;777283;180;816573;-68
2023/01/04 06:08:22;;;;;;;29.33;9.10;;;;;;;;;;773516;180;822481;-68
2023/01/04 06:10:51;;;;;;;24.13;8.77;;;;;;;;;;773680;179;918753;-64
2023/01/04 06:13:17;;;;;;;27.57;8.30;;;;;;;;;;771730;181;845364;-68
2023/01/04 06:15:43;;;;;;;22.63;9.57;;;;;;;;;;761894;181;919021;-69
2023/01/04 06:18:09;;;;;;;35.77;9.70;;;;;;;;;;766931;182;919250;-68
2023/01/04 06:20:34;;;;;;;19.47;7.37;;;;;;;;;;764407;182;918705;-68
2023/01/04 06:23:00;;;;;;;36.07;8.73;;;;;;;;;;773120;181;1024098;-69
2023/01/04 06:25:26;;;;;;;25.43;8.73;;;;;;;;;;767381;182;921255;-64
2023/01/04 06:27:52;;;;;;;16.37;8.00;;;;;;;;;;765951;181;914031;-64
2023/01/04 06:30:18;;;;;;;43.57;11.10;;;;;;;;;;774222;179;816008;-69
2023/01/04 06:32:44;;;;;;;70.67;12.73;;;;;;;;;;769252;182;918813;-64
2023/01/04 06:35:10;;;;;;;19.80;7.80;;;;;;;;;;771961;182;919860;-65
2023/01/04 06:37:35;;;;;;;31.83;9.33;;;;;;;;;;778853;181;919959;-68
2023/01/04 06:40:02;;;;;;;22.10;9.40;;;;;;;;;;773188;182;913935;-65
2023/01/04 06:44:59;;;;;;;42.20;10.90;;;;;;;;;;771534;181;920221;-69
2023/01/04 06:47:25;;;;;;;14.27;7.80;;;;;;;;;;776834;181;920200;-70
2023/01/04 06:49:50;;;;;;;33.73;8.60;;;;;;;;;;772446;182;919404;-69
2023/01/04 06:52:16;;;;;;;16.47;7.23;;;;;;;;;;771881;182;919672;-69
2023/01/04 06:54:42;;;;;;;44.43;11.63;;;;;;;;;;776531;182;821019;-65
2023/01/04 06:57:08;;;;;;;15.70;8.03;;;;;;;;;;773375;181;919892;-65
2023/01/04 06:59:34;;;;;;;42.93;11.07;;;;;;;;;;772348;181;918125;-69
2023/01/04 07:02:00;;;;;;;20.83;8.63;;;;;;;;;;772506;180;918832;-69
2023/01/04 07:04:25;;;;;;;28.77;9.80;;;;;;;;;;761414;182;918881;-65
2023/01/04 07:06:51;;;;;;;83.80;12.67;;;;;;;;;;769581;179;919509;-69
2023/01/04 07:09:17;;;;;;;66.67;12.90;;;;;;;;;;769329;181;919067;-65
2023/01/04 07:11:43;;;;;;;40.40;10.60;;;;;;;;;;775043;181;914634;-70
2023/01/04 07:14:09;;;;;;;84.73;11.87;;;;;;;;;;770528;181;1020074;-69
2023/01/04 07:16:35;;;;;;;29.60;10.13;;;;;;;;;;768448;181;921565;-69
2023/01/04 07:19:01;;;;;;;16.47;8.27;;;;;;;;;;769135;181;919372;-64
2023/01/04 07:21:28;;;;;;;16.85;7.62;;;;;;;;;;767905;181;919694;-65
2023/01/04 07:23:52;;;;;;;22.10;10.47;;;;;;;;;;767486;181;909445;-64
2023/01/04 07:26:18;;;;;;;32.90;11.27;;;;;;;;;;770511;181;919888;-69
2023/01/04 07:31:16;;;;;;;27.37;9.63;;;;;;;;;;770092;180;918445;-69
2023/01/04 07:33:41;;;;;;;42.40;10.33;;;;;;;;;;763618;182;912170;-69
2023/01/04 07:36:08;;;;;;;18.63;8.20;;;;;;;;;;774845;181;917607;-69
2023/01/04 07:38:33;;;;;;;31.90;10.53;;;;;;;;;;765153;180;897919;-69
2023/01/04 07:40:59;;;;;;;23.35;8.75;;;;;;;;;;769127;181;926793;-71
2023/01/04 07:43:25;;;;;;;50.67;10.80;;;;;;;;;;773490;181;891360;-65
2023/01/04 07:45:51;;;;;;;48.43;12.77;;;;;;;;;;767302;182;918996;-64
2023/01/04 07:48:17;;;;;;;22.87;10.23;;;;;;;;;;763954;182;919538;-65
2023/01/04 07:50:43;;;;;;;51.13;13.37;;;;;;;;;;768869;181;932323;-68
2023/01/04 07:53:09;;;;;;;22.93;8.80;;;;;;;;;;772438;179;964094;-69
2023/01/04 07:55:34;;;;;;;38.57;11.23;;;;;;;;;;769821;181;916764;-65
2023/01/04 07:58:00;;;;;;;26.57;9.43;;;;;;;;;;771283;181;919239;-68
2023/01/04 08:00:26;;;;;;;20.43;9.33;;;;;;;;;;777699;179;919435;-65
2023/01/04 08:02:52;;;;;;;29.90;9.00;;;;;;;;;;772430;182;918782;-65
2023/01/04 08:05:18;;;;;;;48.03;11.23;;;;;;;;;;773624;179;916533;-65
2023/01/04 08:07:44;;;;;;;17.13;8.50;;;;;;;;;;776143;179;826611;-65
2023/01/04 08:10:09;;;;;;;23.03;10.13;;;;;;;;;;754943;185;820160;-64
2023/01/04 08:12:35;;;;;;;34.40;9.70;;;;;;;;;;754287;185;919043;-69
2023/01/04 08:15:01;;;;;;;23.67;11.73;;;;;;;;;;769467;182;921282;-69
2023/01/04 08:17:27;;;;;;;19.73;9.98;;;;;;;;;;772520;180;919136;-64
2023/01/04 08:19:53;;;;;;;27.30;9.87;;;;;;;;;;772275;181;918718;-68
2023/01/04 08:22:19;;;;;;;23.27;9.27;;;;;;;;;;771047;181;832280;-64
2023/01/04 08:24:44;;;;;;;18.70;9.73;;;;;;;;;;779059;181;825753;-67
2023/01/04 08:27:10;;;;;;;23.93;9.67;;;;;;;;;;767295;181;918489;-70
2023/01/04 08:29:37;;;;;;;17.33;9.73;;;;;;;;;;769562;181;919589;-65
2023/01/04 08:32:02;;;;;;;12.93;7.23;;;;;;;;;;771809;181;919554;-63
2023/01/04 08:34:28;;;;;;;17.93;10.07;;;;;;;;;;769265;181;918807;-70
2023/01/04 08:36:54;;;;;;;29.43;9.53;;;;;;;;;;768177;181;919935;-64
2023/01/04 08:39:20;;;;;;;16.23;8.80;;;;;;;;;;771222;182;914762;-65
2023/01/04 08:41:51;;;;;;;17.10;10.07;;;;;;;;;;768828;180;912567;-65
2023/01/04 08:44:16;;;;;;;16.73;9.33;;;;;;;;;;768350;180;917636;-65
2023/01/04 08:46:42;;;;;;;18.07;9.37;;;;;;;;;;767884;182;915552;-65
2023/01/04 08:49:08;;;;;;;20.70;10.30;;;;;;;;;;774750;181;916923;-70
2023/01/04 08:51:34;;;;;;;26.00;10.60;;;;;;;;;;768197;182;1021736;-69
2023/01/04 08:53:59;;;;;;;15.67;10.80;;;;;;;;;;766849;181;1031889;-64
2023/01/04 08:56:25;;;;;;;14.90;8.90;;;;;;;;;;773089;182;921053;-70
2023/01/04 08:58:51;;;;;;;16.43;9.47;;;;;;;;;;768762;180;915081;-69
2023/01/04 09:01:18;;;;;;;17.57;12.67;;;;;;;;;;767536;182;918506;-65
2023/01/04 09:03:44;;;;;;;18.87;11.10;;;;;;;;;;765200;182;919186;-69
2023/01/04 09:06:10;;;;;;;19.00;11.07;;;;;;;;;;775187;182;921314;-64
2023/01/04 09:08:35;;;;;;;23.67;11.80;;;;;;;;;;766101;181;1021243;-70
2023/01/04 09:11:02;;;;;;;20.40;11.57;;;;;;;;;;767134;181;918171;-65
2023/01/04 09:13:28;;;;;;;20.20;12.90;;;;;;;;;;772398;182;918083;-65
2023/01/04 09:15:54;;;;;;;19.20;11.65;;;;;;;;;;766697;180;920400;-64
2023/01/04 09:18:20;;;;;;;23.23;13.00;;;;;;;;;;767810;182;843857;-69
2023/01/04 09:20:45;;;;;;;20.13;12.90;;;;;;;;;;776025;181;918482;-64
2023/01/04 09:23:11;;;;;;;22.17;12.67;;;;;;;;;;770416;181;914524;-64
2023/01/04 09:25:39;;;;;;;24.67;12.17;;;;;;;;;;765262;181;915626;-64
2023/01/04 09:28:04;;;;;;;22.17;12.53;;;;;;;;;;766151;180;920049;-64
2023/01/04 09:30:30;;;;;;;20.50;12.73;;;;;;;;;;773914;179;828871;-65
2023/01/04 09:32:56;;;;;;;20.90;11.97;;;;;;;;;;769750;180;919872;-64
2023/01/04 09:35:21;;;;;;;19.20;11.87;;;;;;;;;;773396;181;919160;-65
2023/01/04 09:37:47;;;;;;;27.57;15.17;;;;;;;;;;772077;181;910830;-68
2023/01/04 09:40:13;;;;;;;19.23;11.50;;;;;;;;;;765395;179;954670;-69
2023/01/04 09:42:39;;;;;;;20.67;10.77;;;;;;;;;;755211;184;934360;-63
2023/01/04 09:45:11;;;;;;;20.90;14.67;;;;;;;;;;769870;180;908586;-64
2023/01/04 09:47:36;;;;;;;21.50;13.27;;;;;;;;;;776035;180;918448;-64
2023/01/04 09:50:02;;;;;;;16.73;11.70;;;;;;;;;;763903;182;920062;-64
2023/01/04 09:52:34;;;;;;;19.17;11.17;;;;;;;;;;769378;180;918860;-64
2023/01/04 09:55:00;;;;;;;23.77;12.50;;;;;;;;;;775507;180;918728;-69
2023/01/04 09:57:26;;;;;;;28.92;15.68;;;;;;;;;;771172;182;920194;-69
2023/01/04 09:59:52;;;;;;;22.97;15.47;;;;;;;;;;768775;181;920164;-63
2023/01/04 10:02:18;;;;;;;21.23;13.40;;;;;;;;;;771639;180;919291;-69
2023/01/04 10:04:44;;;;;;;24.43;15.87;;;;;;;;;;775684;182;920070;-69
2023/01/04 10:07:11;;;;;;;22.03;14.60;;;;;;;;;;769436;182;919230;-71
2023/01/04 10:09:37;;;;;;;24.47;12.83;;;;;;;;;;771547;182;920728;-64
2023/01/04 10:12:09;;;;;;;29.27;16.73;;;;;;;;;;769620;181;919367;-64
2023/01/04 10:14:40;;;;;;;26.17;16.07;;;;;;;;;;766063;182;823942;-70
2023/01/04 10:17:09;;;;;;;26.97;15.73;;;;;;;;;;769287;181;927495;-64
2023/01/04 10:19:42;;;;;;;21.62;13.90;;;;;;;;;;769598;181;919103;-69
2023/01/04 10:22:10;;;;;;;20.70;12.83;;;;;;;;;;768318;182;919814;-64
2023/01/04 10:24:49;;;;;;;15.60;10.47;;;;;;;;;;764211;181;812381;-69
2023/01/04 10:27:19;;;;;;;21.40;12.53;;;;;;;;;;772229;179;916877;-63
2023/01/04 10:30:02;;;;;;;19.00;13.50;;;;;;;;;;768676;181;921374;-64
2023/01/04 10:32:28;;;;;;;17.33;11.83;;;;;;;;;;768811;178;1017868;-63
2023/01/04 10:34:54;;;;;;;22.70;10.68;;;;;;;;;;764941;179;812657;-64
2023/01/04 10:37:20;;;;;;;19.50;12.27;;;;;;;;;;771503;181;920832;-64
2023/01/04 10:39:46;;;;;;;17.53;10.93;;;;;;;;;;763909;182;914222;-64
2023/01/04 10:42:12;;;;;;;13.00;8.17;;;;;;;;;;774104;179;919663;-63
2023/01/04 10:44:41;;;;;;;18.77;10.80;;;;;;;;;;778605;181;919450;-64
2023/01/04 10:47:07;;;;;;;20.47;12.83;;;;;;;;;;779233;178;848589;-63
2023/01/04 10:49:40;;;;;;;21.87;12.00;;;;;;;;;;769217;180;820563;-64
2023/01/04 10:52:14;;;;;;;18.50;11.47;;;;;;;;;;774335;181;627290;-63
2023/01/04 10:54:42;;;;;;;19.23;11.90;;;;;;;;;;769921;181;919790;-63
2023/01/04 10:57:10;;;;;;;20.60;12.27;;;;;;;;;;779797;181;714776;-64
2023/01/04 10:59:35;;;;;;;16.87;10.23;;;;;;;;;;775125;180;814932;-63
2023/01/04 11:02:00;;;;;;;17.07;11.07;;;;;;;;;;768792;182;919461;-69
2023/01/04 11:04:26;;;;;;;20.83;13.00;;;;;;;;;;764377;182;912146;-62
2023/01/04 11:06:53;;;;;;;17.60;11.30;;;;;;;;;;771636;181;1021825;-63
2023/01/04 11:09:21;;;;;;;20.47;14.37;;;;;;;;;;771674;181;909255;-63
2023/01/04 11:11:46;;;;;;;22.20;13.00;;;;;;;;;;766260;180;915545;-70
2023/01/04 11:14:12;;;;;;;18.90;11.17;;;;;;;;;;764613;182;917452;-64
2023/01/04 11:16:38;;;;;;;16.17;10.73;;;;;;;;;;754785;185;918613;-63
2023/01/04 11:19:04;;;;;;;14.40;10.67;;;;;;;;;;755952;181;919324;-63
2023/01/04 11:21:31;;;;;;;12.00;8.73;;;;;;;;;;773255;182;919592;-62
2023/01/04 11:23:56;;;;;;;12.30;9.20;;;;;;;;;;765508;179;919661;-63
2023/01/04 11:26:22;;;;;;;13.60;9.00;;;;;;;;;;767081;182;919682;-63
2023/01/04 11:28:48;;;;;;;15.95;9.02;;;;;;;;;;773887;182;919643;-69
2023/01/04 11:31:18;;;;;;;10.93;8.23;;;;;;;;;;768892;182;919291;-63
2023/01/04 11:33:50;;;;;;;11.00;7.47;;;;;;;;;;767660;182;919706;-69
2023/01/04 11:36:15;;;;;;;14.40;9.23;;;;;;;;;;766966;181;819513;-68
2023/01/04 11:38:41;;;;;;;9.30;7.20;;;;;;;;;;772732;183;816766;-68
2023/01/04 11:41:07;;;;;;;10.10;7.00;;;;;;;;;;768507;180;920032;-63
2023/01/04 11:43:33;;;;;;;11.77;6.70;;;;;;;;;;757032;182;919424;-69
2023/01/04 11:46:00;;;;;;;11.43;6.83;;;;;;;;;;762734;182;924008;-68
2023/01/04 11:48:30;;;;;;;10.50;6.37;;;;;;;;;;776475;182;818139;-62
2023/01/04 11:50:56;;;;;;;8.82;6.05;;;;;;;;;;760476;182;919318;-69
2023/01/04 11:53:23;;;;;;;11.80;8.07;;;;;;;;;;765223;182;921633;-69
2023/01/04 11:55:48;;;;;;;11.23;6.90;;;;;;;;;;765450;181;921691;-63
2023/01/04 11:58:14;;;;;;;10.23;6.90;;;;;;;;;;770093;181;818478;-68
2023/01/04 12:00:58;;;;;;;11.20;7.37;;;;;;;;;;759182;181;919516;-63
2023/01/04 12:03:28;;;;;;;7.07;4.90;;;;;;;;;;771936;180;919523;-68
2023/01/04 12:05:53;;;;;;;9.93;5.57;;;;;;;;;;771280;181;918583;-68
2023/01/04 12:08:25;;;;;;;6.53;5.00;;;;;;;;;;779082;181;918731;-63
2023/01/04 12:10:51;;;;;;;10.80;6.50;;;;;;;;;;775205;179;915459;-68
2023/01/04 12:13:17;;;;;;;7.17;4.80;;;;;;;;;;765968;182;917704;-63
2023/01/04 12:15:46;;;;;;;7.70;4.70;;;;;;;;;;770205;180;923847;-62
2023/01/04 12:18:14;;;;;;;6.53;4.67;;;;;;;;;;775822;178;919390;-63
2023/01/04 12:20:40;;;;;;;8.17;6.00;;;;;;;;;;771814;181;916919;-63
2023/01/04 12:23:06;;;;;;;8.87;6.17;;;;;;;;;;769171;182;927849;-63
2023/01/04 12:25:34;;;;;;;9.35;6.53;;;;;;;;;;772139;182;913076;-68
2023/01/04 12:28:00;;;;;;;11.33;6.30;;;;;;;;;;769524;182;919049;-70
2023/01/04 12:30:31;;;;;;;9.50;5.93;;;;;;;;;;768623;182;918758;-69
2023/01/04 12:32:57;;;;;;;7.90;5.40;;;;;;;;;;769481;180;919104;-63
2023/01/04 12:35:29;;;;;;;9.68;6.65;;;;;;;;;;770237;181;917572;-63
2023/01/04 12:37:55;;;;;;;8.07;5.60;;;;;;;;;;754404;184;918957;-63
2023/01/04 12:40:26;;;;;;;11.83;7.40;;;;;;;;;;762739;181;920661;-69
2023/01/04 12:42:58;;;;;;;7.68;5.78;;;;;;;;;;772181;181;1018717;-67
2023/01/04 12:45:24;;;;;;;6.60;4.70;;;;;;;;;;768736;181;918665;-61
2023/01/04 12:50:26;;;;;;;11.60;7.50;;;;;;;;;;760195;182;921929;-61
2023/01/04 12:52:48;;;;;;;9.77;6.50;;;;;;;;;;765873;180;925628;-62
2023/01/04 12:55:20;;;;;;;15.37;6.87;;;;;;;;;;778577;181;917344;-67
2023/01/04 12:57:46;;;;;;;10.47;6.63;;;;;;;;;;768060;180;816817;-61
2023/01/04 13:00:12;;;;;;;13.23;7.80;;;;;;;;;;765452;182;921005;-67
2023/01/04 13:02:43;;;;;;;10.57;7.77;;;;;;;;;;768940;182;920212;-62
2023/01/04 13:05:11;;;;;;;7.73;5.93;;;;;;;;;;775648;181;818237;-62
2023/01/04 13:07:39;;;;;;;10.90;7.40;;;;;;;;;;772582;180;919148;-61
2023/01/04 13:10:19;;;;;;;10.45;8.05;;;;;;;;;;768038;181;922222;-68
2023/01/04 13:12:51;;;;;;;15.50;9.37;;;;;;;;;;775707;180;918740;-68
2023/01/04 13:15:19;;;;;;;14.80;10.43;;;;;;;;;;768075;180;916140;-69
2023/01/04 13:17:45;;;;;;;14.73;9.70;;;;;;;;;;774591;180;918197;-69
2023/01/04 13:20:13;;;;;;;16.13;10.40;;;;;;;;;;766392;181;920946;-63
2023/01/04 13:22:39;;;;;;;18.03;11.27;;;;;;;;;;771115;181;919148;-63
2023/01/04 13:25:08;;;;;;;20.58;15.50;;;;;;;;;;774284;180;918626;-63
2023/01/04 13:27:32;;;;;;;17.27;11.30;;;;;;;;;;767980;181;918997;-62
2023/01/04 13:29:57;;;;;;;16.52;10.63;;;;;;;;;;771130;179;930542;-68
2023/01/04 13:32:24;;;;;;;24.10;8.50;;;;;;;;;;769920;181;923757;-63
2023/01/04 13:34:51;;;;;;;21.87;13.00;;;;;;;;;;779097;181;656766;-68
2023/01/04 13:37:17;;;;;;;15.70;11.13;;;;;;;;;;768089;182;932167;-63
2023/01/04 13:39:43;;;;;;;20.40;13.43;;;;;;;;;;767644;180;923400;-68
2023/01/04 13:42:12;;;;;;;21.73;12.88;;;;;;;;;;775329;180;917008;-69
2023/01/04 13:44:41;;;;;;;28.07;15.67;;;;;;;;;;766975;180;908797;-63
2023/01/04 13:47:07;;;;;;;19.40;13.80;;;;;;;;;;763955;180;919308;-63
2023/01/04 13:49:33;;;;;;;20.20;13.63;;;;;;;;;;765361;182;920414;-68
2023/01/04 13:51:59;;;;;;;21.67;14.33;;;;;;;;;;774548;181;923288;-68
2023/01/04 13:54:25;;;;;;;20.87;12.83;;;;;;;;;;768102;181;924007;-68
2023/01/04 13:56:53;;;;;;;24.20;15.30;;;;;;;;;;767611;182;918395;-62
2023/01/04 13:59:16;;;;;;;20.63;13.50;;;;;;;;;;771636;181;816495;-70
2023/01/04 14:01:42;;;;;;;22.50;14.43;;;;;;;;;;768766;181;919395;-68
2023/01/04 14:04:14;;;;;;;19.80;13.43;;;;;;;;;;765986;181;918312;-69
2023/01/04 14:06:41;;;;;;;21.07;14.30;;;;;;;;;;766380;181;919257;-68
2023/01/04 14:09:18;;;;;;;27.43;16.27;;;;;;;;;;776186;182;917649;-62
2023/01/04 14:14:17;;;;;;;27.37;15.77;;;;;;;;;;766334;181;918325;-68
2023/01/04 14:16:43;;;;;;;20.53;13.40;;;;;;;;;;772546;180;916269;-70
2023/01/04 14:19:14;;;;;;;24.00;14.50;;;;;;;;;;766959;181;919486;-62
2023/01/04 14:21:40;;;;;;;21.73;13.53;;;;;;;;;;776781;180;882789;-62
2023/01/04 14:24:06;;;;;;;20.53;14.87;;;;;;;;;;769894;181;935522;-62
2023/01/04 14:26:32;;;;;;;32.45;16.55;;;;;;;;;;768735;181;915126;-68
2023/01/04 14:28:58;;;;;;;17.87;11.53;;;;;;;;;;765434;181;917576;-62
2023/01/04 14:31:25;;;;;;;23.58;15.57;;;;;;;;;;769954;181;920781;-63
2023/01/04 14:33:50;;;;;;;18.77;12.47;;;;;;;;;;770533;179;916555;-68
2023/01/04 14:36:17;;;;;;;21.53;13.43;;;;;;;;;;771186;182;917454;-69
2023/01/04 14:38:43;;;;;;;19.03;11.57;;;;;;;;;;773406;180;920104;-68
2023/01/04 14:41:24;;;;;;;18.20;10.67;;;;;;;;;;773271;180;950943;-62
2023/01/04 14:43:52;;;;;;;22.50;12.60;;;;;;;;;;762055;180;917631;-66
2023/01/04 14:46:15;;;;;;;22.87;14.40;;;;;;;;;;766057;182;805877;-68
2023/01/04 14:48:41;;;;;;;19.20;12.37;;;;;;;;;;775894;180;916914;-67
2023/01/04 14:51:07;;;;;;;19.50;12.77;;;;;;;;;;765387;181;919042;-69
2023/01/04 14:53:33;;;;;;;17.77;12.00;;;;;;;;;;768533;180;918994;-67
2023/01/04 14:55:59;;;;;;;23.50;15.40;;;;;;;;;;773945;181;833664;-67
2023/01/04 14:58:25;;;;;;;22.27;14.00;;;;;;;;;;766895;182;923672;-61
2023/01/04 15:00:51;;;;;;;27.40;16.20;;;;;;;;;;766843;180;919443;-61
2023/01/04 15:03:16;;;;;;;23.10;14.13;;;;;;;;;;769634;182;919094;-61
2023/01/04 15:05:42;;;;;;;17.63;9.17;;;;;;;;;;764490;182;919770;-67
2023/01/04 15:08:09;;;;;;;19.27;12.00;;;;;;;;;;767726;181;820573;-61
2023/01/04 15:10:35;;;;;;;18.37;12.30;;;;;;;;;;767286;181;922980;-69